createdAt,value
2023-05-25T00:01:01.314Z,58.89
2023-05-25T00:03:31.728Z,59.14
2023-05-25T00:06:02.482Z,60.22
2023-05-25T00:08:30.320Z,60.73
2023-05-25T00:10:57.466Z,60.60
2023-05-25T00:13:25.620Z,58.99
2023-05-25T00:15:53.220Z,58.32
2023-05-25T00:18:20.380Z,58.44
2023-05-25T00:20:47.958Z,58.94
2023-05-25T00:23:15.279Z,59.36
2023-05-25T00:25:42.708Z,59.85
2023-05-25T00:28:11.553Z,60.47
2023-05-25T00:30:39.162Z,61.44
2023-05-25T00:33:07.054Z,61.07
2023-05-25T00:35:34.506Z,59.77
2023-05-25T00:38:01.587Z,59.35
2023-05-25T00:40:28.705Z,59.46
2023-05-25T00:42:56.213Z,59.89
2023-05-25T00:45:23.634Z,60.12
2023-05-25T00:47:51.746Z,60.48
2023-05-25T00:50:19.575Z,60.85
2023-05-25T00:52:46.664Z,60.59
2023-05-25T00:55:13.766Z,58.74
2023-05-25T00:57:41.651Z,58.31
2023-05-25T01:00:13.385Z,58.76
2023-05-25T01:02:42.666Z,59.63
2023-05-25T01:05:10.230Z,60.49
2023-05-25T01:07:37.730Z,60.96
2023-05-25T01:10:09.236Z,62.33
2023-05-25T01:12:38.029Z,61.65
2023-05-25T01:15:06.632Z,60.47
2023-05-25T01:17:38.263Z,59.95
2023-05-25T01:20:11.677Z,59.89
2023-05-25T01:22:54.585Z,60.45
2023-05-25T01:25:29.032Z,61.18
2023-05-25T01:28:28.077Z,61.73
2023-05-25T01:30:55.777Z,62.48
2023-05-25T01:33:22.849Z,61.78
2023-05-25T01:35:51.274Z,60.32
2023-05-25T01:38:18.628Z,59.64
2023-05-25T01:40:45.701Z,59.80
2023-05-25T01:43:12.760Z,59.78
2023-05-25T01:45:39.932Z,60.39
2023-05-25T01:48:13.536Z,60.70
2023-05-25T01:51:01.446Z,61.38
2023-05-25T01:53:30.658Z,61.22
2023-05-25T01:56:05.348Z,60.02
2023-05-25T01:58:44.561Z,59.47
2023-05-25T02:01:14.179Z,59.85
2023-05-25T02:03:41.816Z,60.35
2023-05-25T02:06:09.261Z,60.88
2023-05-25T02:08:36.575Z,61.43
2023-05-25T02:11:04.194Z,62.45
2023-05-25T02:13:31.987Z,62.20
2023-05-25T02:15:59.675Z,60.89
2023-05-25T02:18:28.110Z,60.11
2023-05-25T02:20:55.351Z,60.03
2023-05-25T02:23:22.551Z,60.54
2023-05-25T02:25:51.848Z,60.82
2023-05-25T02:28:19.267Z,61.52
2023-05-25T02:30:46.433Z,61.66
2023-05-25T02:33:14.008Z,61.85
2023-05-25T02:35:42.029Z,60.33
2023-05-25T02:38:10.595Z,59.41
2023-05-25T02:40:39.019Z,59.86
2023-05-25T02:43:06.288Z,60.44
2023-05-25T02:45:33.890Z,60.82
2023-05-25T02:48:01.356Z,61.18
2023-05-25T02:50:29.232Z,61.73
2023-05-25T02:52:56.917Z,61.79
2023-05-25T02:55:26.243Z,60.54
2023-05-25T02:57:53.658Z,59.63
2023-05-25T03:00:42.958Z,59.58
2023-05-25T03:03:10.307Z,59.68
2023-05-25T03:05:38.690Z,60.28
2023-05-25T03:08:06.253Z,60.98
2023-05-25T03:10:35.093Z,61.77
2023-05-25T03:13:02.584Z,61.72
2023-05-25T03:15:30.775Z,60.15
2023-05-25T03:18:01.341Z,58.40
2023-05-25T03:20:29.939Z,58.72
2023-05-25T03:22:57.195Z,59.79
2023-05-25T03:25:24.871Z,60.79
2023-05-25T03:27:54.089Z,61.29
2023-05-25T03:30:22.449Z,61.93
2023-05-25T03:32:49.570Z,62.00
2023-05-25T03:35:16.866Z,60.24
2023-05-25T03:37:44.092Z,60.05
2023-05-25T03:40:12.085Z,59.41
2023-05-25T03:42:39.592Z,60.10
2023-05-25T03:45:09.289Z,61.15
2023-05-25T03:47:37.257Z,60.92
2023-05-25T03:50:06.107Z,63.96
2023-05-25T03:52:35.192Z,63.69
2023-05-25T03:55:04.715Z,62.46
2023-05-25T03:57:31.839Z,62.81
2023-05-25T03:59:59.441Z,62.63
2023-05-25T04:02:26.755Z,62.61
2023-05-25T04:04:57.141Z,63.80
2023-05-25T04:07:27.732Z,64.50
2023-05-25T04:09:54.874Z,63.29
2023-05-25T04:12:22.190Z,62.56
2023-05-25T04:14:49.382Z,61.86
2023-05-25T04:17:19.092Z,61.46
2023-05-25T04:19:46.574Z,61.97
2023-05-25T04:22:13.849Z,62.04
2023-05-25T04:24:42.106Z,63.07
2023-05-25T04:27:09.410Z,62.60
2023-05-25T04:29:38.343Z,61.10
2023-05-25T04:32:19.994Z,60.34
2023-05-25T04:34:52.426Z,60.02
2023-05-25T04:37:27.428Z,60.70
2023-05-25T04:39:57.789Z,59.49
2023-05-25T04:42:25.789Z,60.00
2023-05-25T04:44:57.449Z,61.19
2023-05-25T04:47:26.134Z,61.86
2023-05-25T04:49:54.550Z,60.20
2023-05-25T04:52:23.383Z,59.01
2023-05-25T04:54:51.777Z,58.52
2023-05-25T04:57:19.025Z,59.04
2023-05-25T04:59:46.997Z,58.67
2023-05-25T05:02:14.081Z,60.26
2023-05-25T05:04:41.614Z,61.26
2023-05-25T05:07:09.277Z,60.66
2023-05-25T05:09:36.951Z,59.55
2023-05-25T05:12:04.718Z,58.94
2023-05-25T05:14:36.697Z,58.72
2023-05-25T05:17:04.712Z,58.07
2023-05-25T05:19:33.349Z,58.97
2023-05-25T05:22:00.488Z,59.74
2023-05-25T05:24:27.724Z,59.34
2023-05-25T05:26:59.332Z,59.68
2023-05-25T05:29:37.714Z,58.98
2023-05-25T05:32:05.269Z,57.35
2023-05-25T05:34:33.502Z,56.55
2023-05-25T05:37:04.766Z,57.01
2023-05-25T05:39:32.121Z,56.96
2023-05-25T05:41:59.704Z,56.79
2023-05-25T05:44:29.335Z,57.75
2023-05-25T05:47:01.374Z,57.95
2023-05-25T05:49:29.864Z,57.75
2023-05-25T05:51:57.648Z,58.49
2023-05-25T05:54:24.861Z,57.47
2023-05-25T05:56:52.791Z,55.64
2023-05-25T05:59:21.464Z,54.45
2023-05-25T06:01:48.730Z,55.00
2023-05-25T06:04:16.207Z,54.76
2023-05-25T06:06:45.429Z,54.90
2023-05-25T06:09:12.918Z,55.11
2023-05-25T06:11:40.734Z,55.51
2023-05-25T06:14:08.280Z,56.00
2023-05-25T06:16:37.030Z,56.26
2023-05-25T06:19:04.929Z,56.05
2023-05-25T06:21:32.772Z,56.37
2023-05-25T06:23:59.749Z,57.05
2023-05-25T06:26:27.399Z,56.53
2023-05-25T06:28:54.785Z,54.40
2023-05-25T06:31:22.358Z,53.41
2023-05-25T06:33:49.515Z,53.67
2023-05-25T06:36:16.749Z,53.86
2023-05-25T06:38:44.105Z,53.18
2023-05-25T06:41:15.224Z,53.11
2023-05-25T06:43:43.097Z,53.74
2023-05-25T06:46:18.316Z,53.97
2023-05-25T06:48:46.242Z,53.72
2023-05-25T06:51:13.640Z,53.57
2023-05-25T06:53:41.394Z,53.86
2023-05-25T06:56:09.319Z,54.02
2023-05-25T06:58:36.803Z,53.38
2023-05-25T07:01:04.004Z,53.21
2023-05-25T07:03:32.832Z,53.77
2023-05-25T07:05:59.960Z,53.21
2023-05-25T07:08:27.020Z,53.16
2023-05-25T07:10:54.340Z,52.95
2023-05-25T07:13:22.004Z,52.92
2023-05-25T07:15:49.502Z,51.57
2023-05-25T07:18:16.636Z,50.07
2023-05-25T07:20:44.127Z,49.42
2023-05-25T07:23:11.852Z,48.62
2023-05-25T07:25:39.002Z,46.52
2023-05-25T07:28:06.923Z,44.90
2023-05-25T07:30:34.654Z,44.66
2023-05-25T07:33:02.276Z,44.59
2023-05-25T07:35:29.574Z,44.31
2023-05-25T07:38:00.702Z,42.60
2023-05-25T07:40:29.264Z,42.54
2023-05-25T07:42:56.343Z,41.17
2023-05-25T07:45:23.492Z,41.44
2023-05-25T07:47:50.759Z,42.44
2023-05-25T07:50:17.991Z,42.82
2023-05-25T07:52:45.167Z,41.90
2023-05-25T07:55:12.213Z,40.94
2023-05-25T07:57:40.042Z,40.71
2023-05-25T08:00:11.269Z,41.27
2023-05-25T08:02:42.650Z,40.12
2023-05-25T08:05:10.235Z,40.42
2023-05-25T08:07:38.248Z,40.31
2023-05-25T08:10:06.717Z,39.53
2023-05-25T08:12:47.965Z,39.44
2023-05-25T08:15:16.879Z,38.07
2023-05-25T08:17:44.515Z,37.75
2023-05-25T08:20:12.280Z,37.14
2023-05-25T08:22:40.240Z,38.21
2023-05-25T08:25:08.213Z,37.82
2023-05-25T08:27:36.747Z,38.06
2023-05-25T08:30:06.089Z,38.45
2023-05-25T08:32:33.659Z,39.71
2023-05-25T08:35:02.049Z,39.63
2023-05-25T08:37:30.639Z,39.20
2023-05-25T08:39:58.012Z,39.61
2023-05-25T08:42:25.138Z,38.71
2023-05-25T08:44:52.282Z,38.81
2023-05-25T08:47:20.567Z,39.03
2023-05-25T08:49:48.829Z,38.82
2023-05-25T08:52:21.878Z,38.48
2023-05-25T08:54:51.201Z,38.54
2023-05-25T08:57:26.176Z,38.75
2023-05-25T09:00:13.109Z,37.82
2023-05-25T09:03:29.203Z,37.31
2023-05-25T09:05:58.164Z,37.02
2023-05-25T09:08:25.684Z,37.03
2023-05-25T09:10:52.871Z,36.95
2023-05-25T09:13:22.895Z,35.97
2023-05-25T09:15:50.804Z,35.73
2023-05-25T09:18:17.949Z,34.72
2023-05-25T09:20:47.119Z,34.57
2023-05-25T09:23:15.306Z,35.30
2023-05-25T09:25:42.634Z,35.57
2023-05-25T09:28:25.469Z,35.01
2023-05-25T09:30:54.805Z,34.89
2023-05-25T09:33:21.915Z,34.85
2023-05-25T09:35:49.257Z,34.49
2023-05-25T09:38:17.039Z,34.81
2023-05-25T09:40:44.808Z,34.53
2023-05-25T09:43:15.758Z,34.39
2023-05-25T09:45:49.482Z,33.72
2023-05-25T09:48:17.961Z,33.55
2023-05-25T09:50:48.045Z,33.53
2023-05-25T09:53:18.482Z,33.34
2023-05-25T09:58:18.296Z,34.02
2023-05-25T10:00:46.521Z,33.93
2023-05-25T10:03:15.572Z,34.08
2023-05-25T10:05:42.748Z,33.16
2023-05-25T10:08:10.048Z,33.01
2023-05-25T10:10:37.555Z,31.96
2023-05-25T10:13:05.100Z,32.70
2023-05-25T10:15:32.157Z,32.63
2023-05-25T10:17:59.455Z,32.17
2023-05-25T10:20:56.260Z,32.42
2023-05-25T10:23:15.159Z,31.16
2023-05-25T10:25:46.089Z,30.74
2023-05-25T10:28:28.450Z,32.05
2023-05-25T10:30:56.999Z,32.69
2023-05-25T10:33:24.163Z,32.33
2023-05-25T10:36:02.954Z,30.40
2023-05-25T10:38:37.841Z,30.13
2023-05-25T10:41:07.106Z,30.40
2023-05-25T10:43:35.211Z,30.35
2023-05-25T10:46:02.381Z,30.35
2023-05-25T10:48:36.762Z,31.17
2023-05-25T10:51:04.328Z,30.64
2023-05-25T10:53:31.961Z,32.52
2023-05-25T10:56:10.067Z,32.27
2023-05-25T10:58:41.358Z,32.59
2023-05-25T11:01:09.808Z,31.76
2023-05-25T11:03:56.870Z,30.51
2023-05-25T11:06:47.162Z,30.51
2023-05-25T11:09:33.304Z,29.87
2023-05-25T11:12:02.468Z,30.76
2023-05-25T11:14:31.510Z,31.43
2023-05-25T11:17:11.813Z,31.82
2023-05-25T11:19:54.079Z,32.67
2023-05-25T11:22:30.899Z,33.78
2023-05-25T11:25:00.215Z,32.89
2023-05-25T11:27:31.032Z,31.90
2023-05-25T11:29:58.902Z,30.34
2023-05-25T11:32:27.131Z,30.56
2023-05-25T11:34:55.315Z,29.58
2023-05-25T11:37:24.951Z,29.73
2023-05-25T11:39:52.636Z,29.43
2023-05-25T11:42:24.308Z,28.41
2023-05-25T11:45:38.495Z,28.60
2023-05-25T11:48:06.179Z,29.04
2023-05-25T11:50:34.147Z,27.82
2023-05-25T11:53:06.094Z,27.28
2023-05-25T11:55:34.544Z,27.05
2023-05-25T11:58:02.303Z,26.42
2023-05-25T12:00:29.664Z,26.10
2023-05-25T12:02:57.795Z,25.85
2023-05-25T12:05:25.185Z,25.28
2023-05-25T12:07:52.368Z,25.17
2023-05-25T12:10:19.548Z,26.03
2023-05-25T12:12:51.053Z,25.47
2023-05-25T12:15:21.953Z,26.10
2023-05-25T12:17:49.278Z,25.94
2023-05-25T12:20:17.003Z,25.52
2023-05-25T12:22:45.015Z,24.99
2023-05-25T12:25:12.682Z,24.92
2023-05-25T12:27:43.914Z,24.96
2023-05-25T12:30:11.575Z,24.50
2023-05-25T12:32:53.148Z,24.44
2023-05-25T12:35:20.491Z,24.41
2023-05-25T12:41:06.769Z,27.27
2023-05-25T12:43:43.148Z,26.33
2023-05-25T12:46:10.726Z,26.05
2023-05-25T12:48:38.896Z,26.27
2023-05-25T12:51:10.141Z,26.30
2023-05-25T12:53:50.603Z,26.95
2023-05-25T12:56:17.870Z,27.61
2023-05-25T12:58:45.064Z,28.19
2023-05-25T13:01:12.501Z,28.47
2023-05-25T13:03:39.831Z,29.11
2023-05-25T13:06:07.150Z,29.32
2023-05-25T13:08:34.769Z,29.08
2023-05-25T13:11:03.873Z,29.01
2023-05-25T13:13:31.149Z,29.25
2023-05-25T13:15:58.561Z,29.58
2023-05-25T13:18:26.735Z,28.54
2023-05-25T13:20:56.496Z,28.60
2023-05-25T13:23:25.230Z,28.77
2023-05-25T13:25:52.462Z,29.21
2023-05-25T13:28:19.687Z,29.28
2023-05-25T13:30:47.113Z,29.21
2023-05-25T13:33:14.353Z,29.55
2023-05-25T13:35:46.441Z,30.18
2023-05-25T13:38:15.855Z,30.09
2023-05-25T13:40:45.053Z,29.98
2023-05-25T13:43:12.139Z,30.56
2023-05-25T13:45:41.851Z,31.29
2023-05-25T13:48:09.634Z,32.20
2023-05-25T13:50:40.484Z,33.09
2023-05-25T13:53:07.473Z,33.84
2023-05-25T13:55:36.113Z,34.60
2023-05-25T13:58:05.048Z,35.29
2023-05-25T14:00:33.046Z,35.55
2023-05-25T14:03:00.522Z,36.33
2023-05-25T14:05:28.652Z,36.06
2023-05-25T14:07:56.773Z,36.71
2023-05-25T14:10:24.180Z,35.74
2023-05-25T14:12:51.757Z,36.01
2023-05-25T14:15:19.041Z,35.98
2023-05-25T14:17:46.208Z,35.67
2023-05-25T14:20:16.345Z,35.61
2023-05-25T14:22:43.564Z,34.28
2023-05-25T14:25:10.672Z,34.18
2023-05-25T14:27:38.791Z,33.54
2023-05-25T14:30:07.521Z,33.69
2023-05-25T14:32:50.088Z,33.92
2023-05-25T14:35:17.504Z,34.48
2023-05-25T14:37:44.617Z,34.24
2023-05-25T14:40:12.488Z,33.78
2023-05-25T14:42:40.497Z,34.04
2023-05-25T14:45:10.074Z,34.67
2023-05-25T14:47:38.792Z,34.39
2023-05-25T14:50:06.810Z,34.16
2023-05-25T14:52:34.241Z,33.88
2023-05-25T14:55:01.321Z,33.26
2023-05-25T14:57:28.532Z,33.54
2023-05-25T14:59:56.171Z,33.18
2023-05-25T15:02:23.323Z,33.30
2023-05-25T15:04:50.954Z,33.08
2023-05-25T15:07:18.161Z,33.39
2023-05-25T15:09:45.579Z,33.10
2023-05-25T15:12:13.143Z,33.06
2023-05-25T15:14:42.400Z,32.94
2023-05-25T15:17:09.982Z,33.06
2023-05-25T15:19:37.479Z,33.44
2023-05-25T15:22:04.884Z,33.62
2023-05-25T15:24:32.682Z,33.66
2023-05-25T15:26:59.864Z,33.84
2023-05-25T15:29:27.155Z,33.99
2023-05-25T15:31:54.377Z,34.12
2023-05-25T15:34:22.497Z,34.35
2023-05-25T15:36:49.703Z,34.54
2023-05-25T15:39:16.769Z,34.94
2023-05-25T15:41:43.874Z,34.85
2023-05-25T15:44:12.848Z,34.68
2023-05-25T15:46:41.206Z,35.28
2023-05-25T15:49:11.373Z,35.36
2023-05-25T15:51:40.117Z,35.36
2023-05-25T15:54:08.018Z,35.41
2023-05-25T15:56:36.352Z,35.43
2023-05-25T15:59:04.046Z,35.86
2023-05-25T16:01:36.924Z,35.18
2023-05-25T16:04:04.697Z,34.64
2023-05-25T16:06:32.263Z,35.02
2023-05-25T16:08:59.350Z,35.49
2023-05-25T16:11:31.792Z,35.72
2023-05-25T16:13:59.328Z,35.98
2023-05-25T16:16:26.649Z,36.20
2023-05-25T16:18:54.224Z,36.41
2023-05-25T16:21:21.738Z,36.87
2023-05-25T16:23:48.744Z,37.18
2023-05-25T16:26:17.646Z,37.86
2023-05-25T16:28:44.889Z,38.06
2023-05-25T16:31:13.558Z,37.99
2023-05-25T16:33:42.013Z,38.00
2023-05-25T16:36:09.070Z,38.24
2023-05-25T16:38:36.190Z,38.06
2023-05-25T16:41:03.260Z,38.17
2023-05-25T16:43:30.925Z,37.90
2023-05-25T16:45:58.273Z,38.07
2023-05-25T16:48:26.287Z,38.58
2023-05-25T16:50:53.389Z,38.58
2023-05-25T16:53:20.419Z,39.01
2023-05-25T16:55:47.609Z,39.04
2023-05-25T16:58:14.858Z,39.18
2023-05-25T17:00:42.766Z,38.96
2023-05-25T17:03:10.050Z,39.61
2023-05-25T17:05:37.355Z,40.43
2023-05-25T17:08:04.472Z,41.31
2023-05-25T17:10:32.034Z,40.67
2023-05-25T17:12:59.229Z,40.32
2023-05-25T17:15:26.910Z,40.60
2023-05-25T17:17:54.335Z,41.03
2023-05-25T17:20:21.529Z,41.69
2023-05-25T17:22:49.886Z,41.54
2023-05-25T17:25:17.039Z,41.42
2023-05-25T17:27:44.155Z,41.37
2023-05-25T17:30:11.808Z,41.77
2023-05-25T17:32:41.156Z,41.37
2023-05-25T17:35:09.036Z,41.74
2023-05-25T17:37:36.418Z,41.00
2023-05-25T17:40:05.050Z,41.40
2023-05-25T17:42:32.393Z,41.82
2023-05-25T17:44:59.633Z,42.34
2023-05-25T17:47:27.480Z,42.98
2023-05-25T17:49:54.588Z,43.50
2023-05-25T17:52:23.281Z,43.81
2023-05-25T17:54:53.550Z,43.76
2023-05-25T17:57:20.734Z,43.82
2023-05-25T17:59:47.917Z,43.85
2023-05-25T18:02:15.187Z,44.06
2023-05-25T18:04:42.353Z,43.96
2023-05-25T18:07:09.408Z,44.27
2023-05-25T18:09:36.503Z,44.12
2023-05-25T18:12:03.829Z,44.18
2023-05-25T18:14:35.313Z,44.66
2023-05-25T18:17:02.848Z,44.16
2023-05-25T18:19:30.153Z,44.54
2023-05-25T18:21:57.517Z,44.90
2023-05-25T18:24:24.720Z,44.54
2023-05-25T18:26:51.805Z,45.12
2023-05-25T18:29:19.039Z,45.12
2023-05-25T18:31:48.859Z,45.28
2023-05-25T18:34:16.372Z,45.58
2023-05-25T18:36:46.557Z,45.22
2023-05-25T18:39:13.605Z,45.32
2023-05-25T18:41:42.355Z,45.05
2023-05-25T18:44:10.067Z,44.94
2023-05-25T18:46:40.799Z,44.57
2023-05-25T18:49:08.143Z,44.22
2023-05-25T18:51:35.285Z,44.65
2023-05-25T18:54:02.806Z,44.52
2023-05-25T18:56:30.031Z,46.36
2023-05-25T18:58:57.236Z,46.09
2023-05-25T19:01:25.641Z,45.55
2023-05-25T19:03:56.002Z,47.03
2023-05-25T19:06:25.593Z,46.94
2023-05-25T19:08:52.696Z,47.13
2023-05-25T19:11:20.377Z,46.64
2023-05-25T19:13:48.114Z,47.54
2023-05-25T19:16:15.358Z,47.03
2023-05-25T19:18:42.548Z,46.98
2023-05-25T19:21:09.871Z,46.40
2023-05-25T19:23:37.364Z,47.02
2023-05-25T19:26:04.462Z,47.94
2023-05-25T19:28:32.236Z,46.33
2023-05-25T19:30:59.552Z,46.53
2023-05-25T19:33:26.834Z,48.31
2023-05-25T19:35:53.996Z,49.14
2023-05-25T19:40:48.429Z,49.99
2023-05-25T19:43:15.970Z,50.26
2023-05-25T19:45:44.025Z,50.42
2023-05-25T19:48:11.591Z,50.78
2023-05-25T19:50:38.938Z,51.72
2023-05-25T19:53:06.920Z,50.11
2023-05-25T19:55:36.937Z,50.28
2023-05-25T19:58:04.278Z,48.89
2023-05-25T20:00:32.379Z,50.31
2023-05-25T20:02:59.606Z,51.06
2023-05-25T20:05:27.058Z,51.43
2023-05-25T20:07:56.667Z,53.15
2023-05-25T20:10:23.939Z,53.44
2023-05-25T20:12:51.279Z,53.41
2023-05-25T20:15:18.583Z,53.97
2023-05-25T20:17:45.736Z,54.26
2023-05-25T20:20:13.064Z,54.88
2023-05-25T20:22:41.152Z,54.08
2023-05-25T20:25:08.430Z,53.27
2023-05-25T20:27:35.698Z,53.97
2023-05-25T20:30:03.286Z,54.37
2023-05-25T20:32:31.530Z,54.31
2023-05-25T20:34:58.661Z,54.25
2023-05-25T20:37:25.824Z,55.16
2023-05-25T20:39:52.957Z,54.89
2023-05-25T20:42:19.953Z,53.09
2023-05-25T20:44:47.246Z,51.79
2023-05-25T20:47:14.286Z,53.58
2023-05-25T20:49:41.681Z,53.32
2023-05-25T20:52:08.689Z,53.16
2023-05-25T20:54:36.957Z,52.33
2023-05-25T20:57:04.505Z,51.50
2023-05-25T20:59:32.128Z,53.27
2023-05-25T21:01:59.492Z,54.65
2023-05-25T21:04:27.062Z,54.37
2023-05-25T21:06:54.396Z,53.98
2023-05-25T21:09:22.493Z,55.21
2023-05-25T21:11:49.787Z,55.97
2023-05-25T21:14:16.907Z,55.11
2023-05-25T21:16:44.366Z,53.93
2023-05-25T21:19:11.986Z,53.66
2023-05-25T21:21:39.349Z,53.80
2023-05-25T21:24:06.598Z,54.19
2023-05-25T21:26:33.794Z,54.66
2023-05-25T21:29:00.973Z,55.20
2023-05-25T21:31:28.190Z,55.54
2023-05-25T21:33:55.415Z,55.78
2023-05-25T21:36:22.569Z,56.20
2023-05-25T21:38:49.617Z,56.45
2023-05-25T21:41:17.146Z,56.70
2023-05-25T21:43:44.247Z,56.03
2023-05-25T21:46:11.272Z,52.89
2023-05-25T21:48:38.925Z,50.46
2023-05-25T21:51:06.156Z,50.80
2023-05-25T21:53:33.660Z,51.63
2023-05-25T21:56:00.971Z,52.71
2023-05-25T21:58:28.120Z,53.51
2023-05-25T22:00:55.618Z,52.82
2023-05-25T22:03:22.819Z,53.43
2023-05-25T22:05:52.758Z,54.18
2023-05-25T22:08:20.000Z,54.39
2023-05-25T22:10:47.060Z,53.79
2023-05-25T22:13:14.327Z,52.21
2023-05-25T22:15:41.488Z,54.85
2023-05-25T22:18:08.594Z,53.80
2023-05-25T22:20:39.024Z,53.06
2023-05-25T22:23:06.284Z,54.65
2023-05-25T22:25:33.503Z,55.38
2023-05-25T22:28:00.883Z,55.31
2023-05-25T22:30:28.648Z,55.47
2023-05-25T22:32:55.837Z,54.04
2023-05-25T22:35:23.469Z,52.88
2023-05-25T22:37:50.611Z,52.99
2023-05-25T22:40:17.815Z,51.98
2023-05-25T22:42:50.097Z,51.18
2023-05-25T22:45:18.278Z,51.03
2023-05-25T22:47:47.453Z,51.58
2023-05-25T22:50:14.545Z,51.03
2023-05-25T22:52:41.737Z,50.16
2023-05-25T22:55:12.732Z,51.79
2023-05-25T22:57:40.487Z,53.07
2023-05-25T23:00:08.565Z,54.04
2023-05-25T23:02:36.856Z,54.05
2023-05-25T23:05:05.428Z,53.98
2023-05-25T23:07:32.867Z,53.82
2023-05-25T23:10:00.359Z,53.40
2023-05-25T23:12:27.648Z,52.85
2023-05-25T23:14:56.637Z,52.11
2023-05-25T23:17:23.706Z,54.03
2023-05-25T23:19:50.911Z,54.93
2023-05-25T23:22:17.930Z,55.14
2023-05-25T23:24:45.125Z,55.59
2023-05-25T23:27:12.523Z,54.84
2023-05-25T23:29:40.084Z,55.59
2023-05-25T23:32:07.244Z,53.04
2023-05-25T23:34:35.868Z,53.01
2023-05-25T23:37:06.294Z,52.61
2023-05-25T23:39:34.041Z,54.00
2023-05-25T23:42:02.231Z,54.77
2023-05-25T23:44:29.485Z,54.59
2023-05-25T23:46:56.908Z,55.62
2023-05-25T23:49:24.089Z,56.44
2023-05-25T23:51:51.323Z,56.04
2023-05-25T23:54:18.507Z,56.43
2023-05-25T23:56:45.699Z,58.00
2023-05-25T23:59:15.227Z,58.02
